sensor_id;sensor_type;location;lat;lon;timestamp;pressure;altitude;pressure_sealevel;temperature;humidity
6530;BME280;3298;42.688;23.366;2022-12-05T00:02:07;51954.50;;;-145.06;78.69
6530;BME280;3298;42.688;23.366;2022-12-05T00:04:34;51929.94;;;-145.06;78.01
6530;BME280;3298;42.688;23.366;2022-12-05T00:07:01;51952.47;;;-145.06;77.83
6530;BME280;3298;42.688;23.366;2022-12-05T00:09:28;51942.22;;;-145.06;78.63
6530;BME280;3298;42.688;23.366;2022-12-05T00:11:55;51932.00;;;-145.06;79.23
6530;BME280;3298;42.688;23.366;2022-12-05T00:14:21;51954.50;;;-145.06;78.91
6530;BME280;3298;42.688;23.366;2022-12-05T00:16:48;51970.88;;;-145.06;79.18
6530;BME280;3298;42.688;23.366;2022-12-05T00:19:16;51954.50;;;-145.06;78.54
6530;BME280;3298;42.688;23.366;2022-12-05T00:21:43;51913.56;;;-145.06;78.88
6530;BME280;3298;42.688;23.366;2022-12-05T00:24:12;51966.78;;;-145.06;78.44
6530;BME280;3298;42.688;23.366;2022-12-05T00:26:40;51958.59;;;-145.06;79.18
6530;BME280;3298;42.688;23.366;2022-12-05T00:29:07;51962.69;;;-145.06;79.43
6530;BME280;3298;42.688;23.366;2022-12-05T00:31:34;51952.47;;;-145.06;78.99
6530;BME280;3298;42.688;23.366;2022-12-05T00:34:02;51950.41;;;-145.06;78.72
6530;BME280;3298;42.688;23.366;2022-12-05T00:36:32;51960.66;;;-145.06;79.99
6530;BME280;3298;42.688;23.366;2022-12-05T00:39:00;51940.19;;;-145.06;79.35
6530;BME280;3298;42.688;23.366;2022-12-05T00:41:28;51952.47;;;-145.06;79.81
6530;BME280;3298;42.688;23.366;2022-12-05T00:43:56;51970.88;;;-145.06;79.58
6530;BME280;3298;42.688;23.366;2022-12-05T00:46:26;52077.31;;;-145.06;79.60
6530;BME280;3298;42.688;23.366;2022-12-05T00:48:54;51946.31;;;-145.06;79.00
6530;BME280;3298;42.688;23.366;2022-12-05T00:51:24;51946.31;;;-145.06;78.79
6530;BME280;3298;42.688;23.366;2022-12-05T00:53:56;51968.84;;;-145.06;78.31
6530;BME280;3298;42.688;23.366;2022-12-05T00:56:24;51946.31;;;-145.06;78.51
6530;BME280;3298;42.688;23.366;2022-12-05T00:58:53;51962.69;;;-145.06;79.45
6530;BME280;3298;42.688;23.366;2022-12-05T01:01:22;51958.59;;;-145.06;79.05
6530;BME280;3298;42.688;23.366;2022-12-05T01:03:54;51960.66;;;-145.06;80.29
6530;BME280;3298;42.688;23.366;2022-12-05T01:06:22;51950.41;;;-145.06;81.04
6530;BME280;3298;42.688;23.366;2022-12-05T01:08:49;51970.88;;;-145.06;81.56
6530;BME280;3298;42.688;23.366;2022-12-05T01:11:19;51989.31;;;-145.06;81.01
6530;BME280;3298;42.688;23.366;2022-12-05T01:13:47;51974.97;;;-145.06;80.92
6530;BME280;3298;42.688;23.366;2022-12-05T01:16:15;51950.41;;;-145.06;81.17
6530;BME280;3298;42.688;23.366;2022-12-05T01:18:42;51999.53;;;-145.06;80.56
6530;BME280;3298;42.688;23.366;2022-12-05T01:21:09;51962.69;;;-145.06;80.30
6530;BME280;3298;42.688;23.366;2022-12-05T01:23:36;52077.31;;;-145.06;79.42
6530;BME280;3298;42.688;23.366;2022-12-05T01:26:05;51958.59;;;-145.06;79.95
6530;BME280;3298;42.688;23.366;2022-12-05T01:28:36;51952.47;;;-145.06;79.81
6530;BME280;3298;42.688;23.366;2022-12-05T01:31:04;51962.69;;;-145.06;79.24
6530;BME280;3298;42.688;23.366;2022-12-05T01:33:32;51929.94;;;-145.06;78.95
6530;BME280;3298;42.688;23.366;2022-12-05T01:36:00;51962.69;;;-145.06;78.38
6530;BME280;3298;42.688;23.366;2022-12-05T01:38:27;51940.19;;;-145.06;78.67
6530;BME280;3298;42.688;23.366;2022-12-05T01:41:01;51956.56;;;-145.06;78.47
6530;BME280;3298;42.688;23.366;2022-12-05T01:43:28;51966.78;;;-145.06;78.21
6530;BME280;3298;42.688;23.366;2022-12-05T01:45:57;51919.72;;;-145.06;77.72
6530;BME280;3298;42.688;23.366;2022-12-05T01:48:25;51966.78;;;-145.06;78.72
6530;BME280;3298;42.688;23.366;2022-12-05T01:50:54;51952.47;;;-145.06;79.97
6530;BME280;3298;42.688;23.366;2022-12-05T01:53:21;51938.13;;;-145.06;79.39
6530;BME280;3298;42.688;23.366;2022-12-05T01:55:49;51970.88;;;-145.06;79.79
6530;BME280;3298;42.688;23.366;2022-12-05T01:58:17;51962.69;;;-145.06;78.40
6530;BME280;3298;42.688;23.366;2022-12-05T02:00:45;51979.06;;;-145.06;78.83
6530;BME280;3298;42.688;23.366;2022-12-05T02:03:17;51938.13;;;-145.06;79.50
6530;BME280;3298;42.688;23.366;2022-12-05T02:05:47;51970.88;;;-145.06;79.76
6530;BME280;3298;42.688;23.366;2022-12-05T02:08:15;51954.50;;;-145.06;79.44
6530;BME280;3298;42.688;23.366;2022-12-05T02:10:44;51960.66;;;-145.06;79.36
6530;BME280;3298;42.688;23.366;2022-12-05T02:13:24;51974.97;;;-145.06;79.34
6530;BME280;3298;42.688;23.366;2022-12-05T02:15:59;51968.84;;;-145.06;78.35
6530;BME280;3298;42.688;23.366;2022-12-05T02:18:38;51974.97;;;-145.06;77.28
6530;BME280;3298;42.688;23.366;2022-12-05T02:21:24;51950.41;;;-145.06;77.17
6530;BME280;3298;42.688;23.366;2022-12-05T02:24:10;51954.50;;;-145.06;78.40
6530;BME280;3298;42.688;23.366;2022-12-05T02:26:55;51968.84;;;-145.06;78.50
6530;BME280;3298;42.688;23.366;2022-12-05T02:29:52;51974.97;;;-145.06;78.35
6530;BME280;3298;42.688;23.366;2022-12-05T02:35:17;51958.59;;;-145.06;78.11
6530;BME280;3298;42.688;23.366;2022-12-05T02:37:53;51954.50;;;-145.06;78.27
6530;BME280;3298;42.688;23.366;2022-12-05T02:40:25;51954.50;;;-145.06;77.88
6530;BME280;3298;42.688;23.366;2022-12-05T02:42:58;51952.47;;;-145.06;78.50
6530;BME280;3298;42.688;23.366;2022-12-05T02:45:31;51962.69;;;-145.06;79.26
6530;BME280;3298;42.688;23.366;2022-12-05T02:48:00;51979.06;;;-145.06;79.60
6530;BME280;3298;42.688;23.366;2022-12-05T02:50:30;51974.97;;;-145.06;80.83
6530;BME280;3298;42.688;23.366;2022-12-05T02:53:00;51985.22;;;-145.06;80.88
6530;BME280;3298;42.688;23.366;2022-12-05T02:55:29;51950.41;;;-145.06;80.52
6530;BME280;3298;42.688;23.366;2022-12-05T02:58:02;51991.34;;;-145.06;80.50
6530;BME280;3298;42.688;23.366;2022-12-05T03:00:34;51970.88;;;-145.06;79.60
6530;BME280;3298;42.688;23.366;2022-12-05T03:03:01;51970.88;;;-145.06;79.38
6530;BME280;3298;42.688;23.366;2022-12-05T03:05:38;51979.06;;;-145.06;78.48
6530;BME280;3298;42.688;23.366;2022-12-05T03:08:10;51972.94;;;-145.06;79.03
6530;BME280;3298;42.688;23.366;2022-12-05T03:10:40;51970.88;;;-145.06;78.95
6530;BME280;3298;42.688;23.366;2022-12-05T03:13:11;51964.75;;;-145.06;77.67
6530;BME280;3298;42.688;23.366;2022-12-05T03:15:45;51956.56;;;-145.06;77.50
6530;BME280;3298;42.688;23.366;2022-12-05T03:18:16;51944.28;;;-145.06;76.99
6530;BME280;3298;42.688;23.366;2022-12-05T03:20:47;52013.88;;;-145.06;77.01
6530;BME280;3298;42.688;23.366;2022-12-05T03:23:20;51946.31;;;-145.06;75.84
6530;BME280;3298;42.688;23.366;2022-12-05T03:25:53;51960.66;;;-145.06;75.93
6530;BME280;3298;42.688;23.366;2022-12-05T03:28:27;51934.03;;;-145.06;77.10
6530;BME280;3298;42.688;23.366;2022-12-05T03:31:01;51962.69;;;-145.06;77.33
6530;BME280;3298;42.688;23.366;2022-12-05T03:33:36;51938.13;;;-145.06;77.84
6530;BME280;3298;42.688;23.366;2022-12-05T03:36:11;51950.41;;;-145.06;78.38
6530;BME280;3298;42.688;23.366;2022-12-05T03:38:44;51954.50;;;-145.06;78.95
6530;BME280;3298;42.688;23.366;2022-12-05T03:41:21;51979.06;;;-145.06;78.90
6530;BME280;3298;42.688;23.366;2022-12-05T03:43:54;51958.59;;;-145.06;78.42
6530;BME280;3298;42.688;23.366;2022-12-05T03:46:26;51946.31;;;-145.06;77.72
6530;BME280;3298;42.688;23.366;2022-12-05T03:48:58;51966.78;;;-145.06;77.70
6530;BME280;3298;42.688;23.366;2022-12-05T03:51:38;51942.22;;;-145.06;77.07
6530;BME280;3298;42.688;23.366;2022-12-05T03:54:11;51962.69;;;-145.06;77.72
6530;BME280;3298;42.688;23.366;2022-12-05T03:56:43;51956.56;;;-145.06;77.62
6530;BME280;3298;42.688;23.366;2022-12-05T03:59:15;51942.22;;;-145.06;76.57
6530;BME280;3298;42.688;23.366;2022-12-05T04:01:47;51921.75;;;-145.06;76.62
6530;BME280;3298;42.688;23.366;2022-12-05T04:04:17;51946.31;;;-145.06;76.12
6530;BME280;3298;42.688;23.366;2022-12-05T04:06:48;51938.13;;;-145.06;75.54
6530;BME280;3298;42.688;23.366;2022-12-05T04:09:19;51938.13;;;-145.06;74.88
6530;BME280;3298;42.688;23.366;2022-12-05T04:11:50;51938.13;;;-145.06;75.29
6530;BME280;3298;42.688;23.366;2022-12-05T04:14:23;51934.03;;;-145.06;74.82
6530;BME280;3298;42.688;23.366;2022-12-05T04:16:57;51932.00;;;-145.06;75.08
6530;BME280;3298;42.688;23.366;2022-12-05T04:19:30;51944.28;;;-145.06;76.79
6530;BME280;3298;42.688;23.366;2022-12-05T04:22:19;51923.81;;;-145.06;76.81
6530;BME280;3298;42.688;23.366;2022-12-05T04:24:47;51942.22;;;-145.06;77.47
6530;BME280;3298;42.688;23.366;2022-12-05T04:27:36;51946.31;;;-145.06;78.54
6530;BME280;3298;42.688;23.366;2022-12-05T04:30:07;51979.06;;;-145.06;79.08
6530;BME280;3298;42.688;23.366;2022-12-05T04:32:41;51942.22;;;-145.06;78.21
6530;BME280;3298;42.688;23.366;2022-12-05T04:35:13;51942.22;;;-145.06;77.25
6530;BME280;3298;42.688;23.366;2022-12-05T04:37:46;51938.13;;;-145.06;77.99
6530;BME280;3298;42.688;23.366;2022-12-05T04:40:18;51940.19;;;-145.06;78.17
6530;BME280;3298;42.688;23.366;2022-12-05T04:42:46;51966.78;;;-145.06;77.98
6530;BME280;3298;42.688;23.366;2022-12-05T04:45:16;51960.66;;;-145.06;77.83
6530;BME280;3298;42.688;23.366;2022-12-05T04:47:48;51921.75;;;-145.06;76.77
6530;BME280;3298;42.688;23.366;2022-12-05T04:50:18;51952.47;;;-145.06;77.09
6530;BME280;3298;42.688;23.366;2022-12-05T04:52:48;51932.00;;;-145.06;76.37
6530;BME280;3298;42.688;23.366;2022-12-05T04:55:19;51956.56;;;-145.06;76.50
6530;BME280;3298;42.688;23.366;2022-12-05T04:57:54;51929.94;;;-145.06;76.39
6530;BME280;3298;42.688;23.366;2022-12-05T05:00:23;51932.00;;;-145.06;78.40
6530;BME280;3298;42.688;23.366;2022-12-05T05:02:56;51950.41;;;-145.06;78.84
6530;BME280;3298;42.688;23.366;2022-12-05T05:05:27;51979.06;;;-145.06;79.16
6530;BME280;3298;42.688;23.366;2022-12-05T05:07:54;51948.38;;;-145.06;78.98
6530;BME280;3298;42.688;23.366;2022-12-05T05:10:26;51942.22;;;-145.06;79.48
6530;BME280;3298;42.688;23.366;2022-12-05T05:12:56;51952.47;;;-145.06;80.24
6530;BME280;3298;42.688;23.366;2022-12-05T05:15:23;51927.91;;;-145.06;78.46
6530;BME280;3298;42.688;23.366;2022-12-05T05:17:51;51942.22;;;-145.06;78.51
6530;BME280;3298;42.688;23.366;2022-12-05T05:20:18;51950.41;;;-145.06;78.10
6530;BME280;3298;42.688;23.366;2022-12-05T05:22:52;51946.31;;;-145.06;78.36
6530;BME280;3298;42.688;23.366;2022-12-05T05:25:20;51950.41;;;-145.06;77.22
6530;BME280;3298;42.688;23.366;2022-12-05T05:27:48;51954.50;;;-145.06;76.09
6530;BME280;3298;42.688;23.366;2022-12-05T05:30:16;51948.38;;;-145.06;75.52
6530;BME280;3298;42.688;23.366;2022-12-05T05:32:43;51962.69;;;-145.06;74.89
6530;BME280;3298;42.688;23.366;2022-12-05T05:35:11;51934.03;;;-145.06;75.84
6530;BME280;3298;42.688;23.366;2022-12-05T05:37:39;51925.84;;;-145.06;75.39
6530;BME280;3298;42.688;23.366;2022-12-05T05:40:07;51940.19;;;-145.06;75.97
6530;BME280;3298;42.688;23.366;2022-12-05T05:42:34;51921.75;;;-145.06;76.00
6530;BME280;3298;42.688;23.366;2022-12-05T05:45:02;51942.22;;;-145.06;76.06
6530;BME280;3298;42.688;23.366;2022-12-05T05:47:28;51917.66;;;-145.06;76.74
6530;BME280;3298;42.688;23.366;2022-12-05T05:49:55;51921.75;;;-145.06;76.43
6530;BME280;3298;42.688;23.366;2022-12-05T05:52:23;51934.03;;;-145.06;75.45
6530;BME280;3298;42.688;23.366;2022-12-05T05:54:50;51954.50;;;-145.06;74.46
6530;BME280;3298;42.688;23.366;2022-12-05T05:57:17;51938.13;;;-145.06;74.30
6530;BME280;3298;42.688;23.366;2022-12-05T05:59:45;51917.66;;;-145.06;73.90
6530;BME280;3298;42.688;23.366;2022-12-05T06:02:11;51909.47;;;-145.06;74.69
6530;BME280;3298;42.688;23.366;2022-12-05T06:04:38;51923.81;;;-145.06;73.87
6530;BME280;3298;42.688;23.366;2022-12-05T06:07:05;51927.91;;;-145.06;73.19
6530;BME280;3298;42.688;23.366;2022-12-05T06:09:33;51927.91;;;-145.06;73.11
6530;BME280;3298;42.688;23.366;2022-12-05T06:12:00;51923.81;;;-145.06;74.46
6530;BME280;3298;42.688;23.366;2022-12-05T06:14:27;51915.63;;;-145.06;73.93
6530;BME280;3298;42.688;23.366;2022-12-05T06:16:53;51919.72;;;-145.06;74.05
6530;BME280;3298;42.688;23.366;2022-12-05T06:19:20;51923.81;;;-145.06;74.15
6530;BME280;3298;42.688;23.366;2022-12-05T06:21:47;51909.47;;;-145.06;74.38
6530;BME280;3298;42.688;23.366;2022-12-05T06:24:15;51913.56;;;-145.06;74.46
6530;BME280;3298;42.688;23.366;2022-12-05T06:26:43;51927.91;;;-145.06;75.55
6530;BME280;3298;42.688;23.366;2022-12-05T06:29:10;51903.34;;;-145.06;75.60
6530;BME280;3298;42.688;23.366;2022-12-05T06:31:37;51929.94;;;-145.06;76.56
6530;BME280;3298;42.688;23.366;2022-12-05T06:34:04;51952.47;;;-145.06;76.54
6530;BME280;3298;42.688;23.366;2022-12-05T06:36:30;51934.03;;;-145.06;77.24
6530;BME280;3298;42.688;23.366;2022-12-05T06:38:58;51938.13;;;-145.06;76.88
6530;BME280;3298;42.688;23.366;2022-12-05T06:41:25;51927.91;;;-145.06;76.99
6530;BME280;3298;42.688;23.366;2022-12-05T06:43:55;51950.41;;;-145.06;77.66
6530;BME280;3298;42.688;23.366;2022-12-05T06:46:23;51921.75;;;-145.06;78.22
6530;BME280;3298;42.688;23.366;2022-12-05T06:48:51;51929.94;;;-145.06;76.97
6530;BME280;3298;42.688;23.366;2022-12-05T06:51:18;51942.22;;;-145.06;75.92
6530;BME280;3298;42.688;23.366;2022-12-05T06:53:45;51942.22;;;-145.06;75.81
6530;BME280;3298;42.688;23.366;2022-12-05T06:56:14;51911.53;;;-145.06;75.38
6530;BME280;3298;42.688;23.366;2022-12-05T06:58:41;51921.75;;;-145.06;74.79
6530;BME280;3298;42.688;23.366;2022-12-05T07:01:11;51925.84;;;-145.06;75.77
6530;BME280;3298;42.688;23.366;2022-12-05T07:03:55;51938.13;;;-145.06;76.31
6530;BME280;3298;42.688;23.366;2022-12-05T07:06:22;51958.59;;;-145.06;77.31
6530;BME280;3298;42.688;23.366;2022-12-05T07:08:49;51925.84;;;-145.06;76.72
6530;BME280;3298;42.688;23.366;2022-12-05T07:11:16;51946.31;;;-145.06;75.63
6530;BME280;3298;42.688;23.366;2022-12-05T07:13:43;51940.19;;;-145.06;77.06
6530;BME280;3298;42.688;23.366;2022-12-05T07:16:11;51968.84;;;-145.06;76.94
6530;BME280;3298;42.688;23.366;2022-12-05T07:18:38;51966.78;;;-145.06;76.54
6530;BME280;3298;42.688;23.366;2022-12-05T07:21:06;51958.59;;;-145.06;76.54
6530;BME280;3298;42.688;23.366;2022-12-05T07:23:34;51897.19;;;-145.06;76.32
6530;BME280;3298;42.688;23.366;2022-12-05T07:26:03;51944.28;;;-145.06;76.02
6530;BME280;3298;42.688;23.366;2022-12-05T07:28:30;51932.00;;;-145.06;75.63
6530;BME280;3298;42.688;23.366;2022-12-05T07:31:00;51942.22;;;-145.06;74.62
6530;BME280;3298;42.688;23.366;2022-12-05T07:33:29;51925.84;;;-145.06;74.97
6530;BME280;3298;42.688;23.366;2022-12-05T07:35:59;51946.31;;;-145.06;75.76
6530;BME280;3298;42.688;23.366;2022-12-05T07:38:26;51925.84;;;-145.06;74.56
6530;BME280;3298;42.688;23.366;2022-12-05T07:40:53;51909.47;;;-145.06;73.59
6530;BME280;3298;42.688;23.366;2022-12-05T07:43:20;51913.56;;;-145.06;74.17
6530;BME280;3298;42.688;23.366;2022-12-05T07:45:47;51917.66;;;-145.06;73.91
6530;BME280;3298;42.688;23.366;2022-12-05T07:48:14;51921.75;;;-145.06;74.92
6530;BME280;3298;42.688;23.366;2022-12-05T07:50:42;51909.47;;;-145.06;75.46
6530;BME280;3298;42.688;23.366;2022-12-05T07:53:09;51921.75;;;-145.06;76.17
6530;BME280;3298;42.688;23.366;2022-12-05T07:55:36;51948.38;;;-145.06;75.58
6530;BME280;3298;42.688;23.366;2022-12-05T07:58:03;51942.22;;;-145.06;75.40
6530;BME280;3298;42.688;23.366;2022-12-05T08:00:30;51960.66;;;-145.06;75.01
6530;BME280;3298;42.688;23.366;2022-12-05T08:02:57;51921.75;;;-145.06;74.85
6530;BME280;3298;42.688;23.366;2022-12-05T08:05:23;51905.38;;;-145.06;75.05
6530;BME280;3298;42.688;23.366;2022-12-05T08:07:52;52065.03;;;-145.06;75.64
6530;BME280;3298;42.688;23.366;2022-12-05T08:10:18;51940.19;;;-145.06;76.20
6530;BME280;3298;42.688;23.366;2022-12-05T08:12:45;51934.03;;;-145.06;75.71
6530;BME280;3298;42.688;23.366;2022-12-05T08:15:12;51919.72;;;-145.06;74.91
6530;BME280;3298;42.688;23.366;2022-12-05T08:17:39;51893.09;;;-145.06;74.69
6530;BME280;3298;42.688;23.366;2022-12-05T08:20:06;51932.00;;;-145.06;73.85
6530;BME280;3298;42.688;23.366;2022-12-05T08:22:33;51911.53;;;-145.06;74.33
6530;BME280;3298;42.688;23.366;2022-12-05T08:25:02;51921.75;;;-145.06;73.30
6530;BME280;3298;42.688;23.366;2022-12-05T08:27:29;51938.13;;;-145.06;73.47
6530;BME280;3298;42.688;23.366;2022-12-05T08:29:55;51929.94;;;-145.06;72.95
6530;BME280;3298;42.688;23.366;2022-12-05T08:32:22;51903.34;;;-145.06;72.31
6530;BME280;3298;42.688;23.366;2022-12-05T08:34:49;51921.75;;;-145.06;72.39
6530;BME280;3298;42.688;23.366;2022-12-05T08:37:16;51950.41;;;-145.06;72.52
6530;BME280;3298;42.688;23.366;2022-12-05T08:39:43;51913.56;;;-145.06;72.26
6530;BME280;3298;42.688;23.366;2022-12-05T08:42:11;51919.72;;;-145.06;72.68
6530;BME280;3298;42.688;23.366;2022-12-05T08:44:38;51897.19;;;-145.06;73.07
6530;BME280;3298;42.688;23.366;2022-12-05T08:47:05;51921.75;;;-145.06;71.52
6530;BME280;3298;42.688;23.366;2022-12-05T08:49:32;51897.19;;;-145.06;70.73
6530;BME280;3298;42.688;23.366;2022-12-05T08:51:59;51899.25;;;-145.06;71.03
6530;BME280;3298;42.688;23.366;2022-12-05T08:54:26;51917.66;;;-145.06;70.78
6530;BME280;3298;42.688;23.366;2022-12-05T08:56:53;51897.19;;;-145.06;70.54
6530;BME280;3298;42.688;23.366;2022-12-05T08:59:21;51889.00;;;-145.06;70.22
6530;BME280;3298;42.688;23.366;2022-12-05T09:01:49;51893.09;;;-145.06;70.51
6530;BME280;3298;42.688;23.366;2022-12-05T09:04:15;51897.19;;;-145.06;71.12
6530;BME280;3298;42.688;23.366;2022-12-05T09:06:42;51909.47;;;-145.06;70.13
6530;BME280;3298;42.688;23.366;2022-12-05T09:09:10;51870.59;;;-145.06;69.53
6530;BME280;3298;42.688;23.366;2022-12-05T09:11:39;51897.19;;;-145.06;69.02
6530;BME280;3298;42.688;23.366;2022-12-05T09:14:10;51882.88;;;-145.06;68.21
6530;BME280;3298;42.688;23.366;2022-12-05T09:16:39;51872.66;;;-145.06;67.31
6530;BME280;3298;42.688;23.366;2022-12-05T09:19:11;51891.06;;;-145.06;66.97
6530;BME280;3298;42.688;23.366;2022-12-05T09:21:39;51880.81;;;-145.06;66.64
6530;BME280;3298;42.688;23.366;2022-12-05T09:24:06;51893.09;;;-145.06;65.88
6530;BME280;3298;42.688;23.366;2022-12-05T09:26:33;51868.56;;;-145.06;65.15
6530;BME280;3298;42.688;23.366;2022-12-05T09:29:00;51852.19;;;-145.06;64.76
6530;BME280;3298;42.688;23.366;2022-12-05T09:31:28;51884.91;;;-145.06;63.85
6530;BME280;3298;42.688;23.366;2022-12-05T09:33:56;51882.88;;;-145.06;63.13
6530;BME280;3298;42.688;23.366;2022-12-05T09:36:25;51872.66;;;-145.06;64.26
6530;BME280;3298;42.688;23.366;2022-12-05T09:38:52;51889.00;;;-145.06;64.51
6530;BME280;3298;42.688;23.366;2022-12-05T09:44:43;51862.41;;;-145.06;62.72
6530;BME280;3298;42.688;23.366;2022-12-05T09:47:19;51878.78;;;-145.06;62.90
6530;BME280;3298;42.688;23.366;2022-12-05T09:49:54;51864.47;;;-145.06;63.38
6530;BME280;3298;42.688;23.366;2022-12-05T09:52:26;51866.50;;;-145.06;63.41
6530;BME280;3298;42.688;23.366;2022-12-05T09:54:53;51868.56;;;-145.06;64.54
6530;BME280;3298;42.688;23.366;2022-12-05T09:57:27;51844.00;;;-145.06;64.73
6530;BME280;3298;42.688;23.366;2022-12-05T09:59:59;51876.75;;;-145.06;64.48
6530;BME280;3298;42.688;23.366;2022-12-05T10:02:33;51848.09;;;-145.06;64.21
6530;BME280;3298;42.688;23.366;2022-12-05T10:05:10;51872.66;;;-145.06;64.12
6530;BME280;3298;42.688;23.366;2022-12-05T10:07:43;51841.94;;;-145.06;65.67
6530;BME280;3298;42.688;23.366;2022-12-05T10:10:26;51868.56;;;-145.06;65.30
6530;BME280;3298;42.688;23.366;2022-12-05T10:13:12;51880.81;;;-145.06;65.23
6530;BME280;3298;42.688;23.366;2022-12-05T10:15:43;51889.00;;;-145.06;65.84
6530;BME280;3298;42.688;23.366;2022-12-05T10:18:23;51876.75;;;-145.06;63.95
6530;BME280;3298;42.688;23.366;2022-12-05T10:20:57;51868.56;;;-145.06;64.54
6530;BME280;3298;42.688;23.366;2022-12-05T10:23:29;51864.47;;;-145.06;64.46
6530;BME280;3298;42.688;23.366;2022-12-05T10:25:58;51862.41;;;-145.06;64.81
6530;BME280;3298;42.688;23.366;2022-12-05T10:28:31;51848.09;;;-145.06;64.08
6530;BME280;3298;42.688;23.366;2022-12-05T10:31:06;51891.06;;;-145.06;62.16
6530;BME280;3298;42.688;23.366;2022-12-05T10:33:38;51860.38;;;-145.06;63.03
6530;BME280;3298;42.688;23.366;2022-12-05T10:36:11;51891.06;;;-145.06;63.25
6530;BME280;3298;42.688;23.366;2022-12-05T10:38:40;51868.56;;;-145.06;63.50
6530;BME280;3298;42.688;23.366;2022-12-05T10:41:10;51866.50;;;-145.06;64.71
6530;BME280;3298;42.688;23.366;2022-12-05T10:43:40;51895.16;;;-145.06;64.67
6530;BME280;3298;42.688;23.366;2022-12-05T10:46:09;51872.66;;;-145.06;64.42
6530;BME280;3298;42.688;23.366;2022-12-05T10:48:37;51868.56;;;-145.06;64.91
6530;BME280;3298;42.688;23.366;2022-12-05T10:51:05;51876.75;;;-145.06;64.41
6530;BME280;3298;42.688;23.366;2022-12-05T10:53:39;51856.28;;;-145.06;64.79
6530;BME280;3298;42.688;23.366;2022-12-05T10:56:36;51823.53;;;-145.06;65.29
6530;BME280;3298;42.688;23.366;2022-12-05T10:59:04;51909.47;;;-145.06;65.82
6530;BME280;3298;42.688;23.366;2022-12-05T11:01:32;51848.09;;;-145.06;66.01
6530;BME280;3298;42.688;23.366;2022-12-05T11:04:00;51864.47;;;-145.06;66.21
6530;BME280;3298;42.688;23.366;2022-12-05T11:06:30;51854.22;;;-145.06;65.28
6530;BME280;3298;42.688;23.366;2022-12-05T11:09:02;51889.00;;;-145.06;65.33
6530;BME280;3298;42.688;23.366;2022-12-05T11:11:32;51868.56;;;-145.06;66.19
6530;BME280;3298;42.688;23.366;2022-12-05T11:14:00;51866.50;;;-145.06;66.22
6530;BME280;3298;42.688;23.366;2022-12-05T11:16:30;51868.56;;;-145.06;65.64
6530;BME280;3298;42.688;23.366;2022-12-05T11:19:17;51844.00;;;-145.06;66.19
6530;BME280;3298;42.688;23.366;2022-12-05T11:21:45;51852.19;;;-145.06;67.57
6530;BME280;3298;42.688;23.366;2022-12-05T11:24:28;51880.81;;;-145.06;66.39
6530;BME280;3298;42.688;23.366;2022-12-05T11:26:55;51891.06;;;-145.06;65.85
6530;BME280;3298;42.688;23.366;2022-12-05T11:29:31;51870.59;;;-145.06;67.33
6530;BME280;3298;42.688;23.366;2022-12-05T11:31:58;51895.16;;;-145.06;68.09
6530;BME280;3298;42.688;23.366;2022-12-05T11:34:30;51882.88;;;-145.06;67.61
6530;BME280;3298;42.688;23.366;2022-12-05T11:37:04;51876.75;;;-145.06;66.96
6530;BME280;3298;42.688;23.366;2022-12-05T11:39:33;51876.75;;;-145.06;66.83
6530;BME280;3298;42.688;23.366;2022-12-05T11:42:29;51862.41;;;-145.06;66.92
6530;BME280;3298;42.688;23.366;2022-12-05T11:45:23;51860.38;;;-145.06;66.68
6530;BME280;3298;42.688;23.366;2022-12-05T11:48:14;51870.59;;;-145.06;66.38
6530;BME280;3298;42.688;23.366;2022-12-05T11:50:51;51966.78;;;-145.06;66.87
6530;BME280;3298;42.688;23.366;2022-12-05T11:53:56;51860.38;;;-145.06;68.88
6530;BME280;3298;42.688;23.366;2022-12-05T11:56:35;51891.06;;;-145.06;70.13
6530;BME280;3298;42.688;23.366;2022-12-05T11:59:30;51899.25;;;-145.06;69.64
6530;BME280;3298;42.688;23.366;2022-12-05T12:02:11;51886.97;;;-145.06;69.86
6530;BME280;3298;42.688;23.366;2022-12-05T12:04:49;51903.34;;;-145.06;68.34
6530;BME280;3298;42.688;23.366;2022-12-05T12:07:26;51872.66;;;-145.06;67.63
6530;BME280;3298;42.688;23.366;2022-12-05T12:10:05;51880.81;;;-145.06;67.01
6530;BME280;3298;42.688;23.366;2022-12-05T12:12:44;51878.78;;;-145.06;67.35
6530;BME280;3298;42.688;23.366;2022-12-05T12:15:30;51874.69;;;-145.06;69.68
6530;BME280;3298;42.688;23.366;2022-12-05T12:18:08;51901.28;;;-145.06;69.91
6530;BME280;3298;42.688;23.366;2022-12-05T12:20:47;51880.81;;;-145.06;68.97
6530;BME280;3298;42.688;23.366;2022-12-05T12:23:29;51860.38;;;-145.06;68.73
6530;BME280;3298;42.688;23.366;2022-12-05T12:26:10;51866.50;;;-145.06;68.21
6530;BME280;3298;42.688;23.366;2022-12-05T12:28:43;51889.00;;;-145.06;69.14
6530;BME280;3298;42.688;23.366;2022-12-05T12:31:25;51882.88;;;-145.06;70.95
6530;BME280;3298;42.688;23.366;2022-12-05T12:34:00;51895.16;;;-145.06;71.78
6530;BME280;3298;42.688;23.366;2022-12-05T12:36:35;51876.75;;;-145.06;71.47
6530;BME280;3298;42.688;23.366;2022-12-05T12:39:28;51923.81;;;-145.06;72.57
6530;BME280;3298;42.688;23.366;2022-12-05T12:42:10;51909.47;;;-145.06;71.71
6530;BME280;3298;42.688;23.366;2022-12-05T12:45:03;51874.69;;;-145.06;70.82
6530;BME280;3298;42.688;23.366;2022-12-05T12:47:41;51901.28;;;-145.06;70.68
6530;BME280;3298;42.688;23.366;2022-12-05T12:50:14;51866.50;;;-145.06;71.30
6530;BME280;3298;42.688;23.366;2022-12-05T12:52:57;51911.53;;;-145.06;71.07
6530;BME280;3298;42.688;23.366;2022-12-05T12:55:36;51880.81;;;-145.06;71.82
6530;BME280;3298;42.688;23.366;2022-12-05T12:58:12;51895.16;;;-145.06;71.74
6530;BME280;3298;42.688;23.366;2022-12-05T13:00:49;51905.38;;;-145.06;72.93
6530;BME280;3298;42.688;23.366;2022-12-05T13:03:22;51899.25;;;-145.06;71.84
6530;BME280;3298;42.688;23.366;2022-12-05T13:05:54;51915.63;;;-145.06;73.36
6530;BME280;3298;42.688;23.366;2022-12-05T13:08:27;51915.63;;;-145.06;72.26
6530;BME280;3298;42.688;23.366;2022-12-05T13:10:58;51905.38;;;-145.06;72.26
6530;BME280;3298;42.688;23.366;2022-12-05T13:13:29;51870.59;;;-145.06;72.11
6530;BME280;3298;42.688;23.366;2022-12-05T13:16:04;51919.72;;;-145.06;70.92
6530;BME280;3298;42.688;23.366;2022-12-05T13:18:32;51903.34;;;-145.06;71.48